Main page
METAR-TAF:

METAR-TAF

Airports :

Fernando de Noronha Airport

Fernando de Noronha, Pernambuco, Brazil

latitude: 03-51S, longitude: 032-25W, elevation: 56 m

Current weather observation

The report was made 9 hours and 46 minutes ago, at 22:00 UTC
Wind 4 kt from the Southeast
Temperature 26°C
Humidity 89%
Pressure 1012 hPa
Visibility 10 km or more
Few clouds at a height of 1300 ft
Scattered clouds at a height of 7000 ft

METAR: SBFN 182200Z 13004KT 9999 FEW013 SCT070 26/24 Q1012

Time: 05:46 (07:46 UTC)

Forecast

The report was made 3 hours and 46 minutes ago, at 04:00 UTC
Forecast valid from 19 at 06 UTC to 19 at 18 UTC
Wind 8 kt from the East
Visibility 10 km or more
Scattered clouds at a height of 1700 ft
Becoming
from 19 at 12 UTC to 19 at 14 UTC
Broken clouds at a height of 2000 ft
Becoming
from 19 at 15 UTC to 19 at 17 UTC
Wind 7 kt from the East

TAF: SBFN 190400Z 1906/1918 10008KT 9999 SCT017 TN25/1908Z TX29/1916Z BECMG 1912/1914 BKN020 BECMG 1915/1917 08007KT RMK PAZ

Weather observations and forecasts of more than 4000 airports (METAR and TAF reports).

The available stations are represented by yellow and red dots on the map.

Hover mouse over dot to see the name of the station.

Then click to see weather observations and forecasts.

To change the map : click on the green buttons with a black cross to zoom in, on the green button with a dash to zoom out, or on the green arrows for adjacent maps.


METAR-TAF: